sensor_id;sensor_type;location;lat;lon;timestamp;P1;durP1;ratioP1;P2;durP2;ratioP2
7289;SDS011;63176;52.678;13.250;2023-01-30T00:01:01;7.20;;;4.30;;
7289;SDS011;63176;52.678;13.250;2023-01-30T00:03:29;6.88;;;4.28;;
7289;SDS011;63176;52.678;13.250;2023-01-30T00:05:54;5.47;;;3.67;;
7289;SDS011;63176;52.678;13.250;2023-01-30T00:08:20;7.20;;;3.30;;
7289;SDS011;63176;52.678;13.250;2023-01-30T00:10:46;6.38;;;3.58;;
7289;SDS011;63176;52.678;13.250;2023-01-30T00:13:12;6.82;;;4.10;;
7289;SDS011;63176;52.678;13.250;2023-01-30T00:15:39;6.35;;;3.50;;
7289;SDS011;63176;52.678;13.250;2023-01-30T00:18:05;7.97;;;4.20;;
7289;SDS011;63176;52.678;13.250;2023-01-30T00:20:31;4.37;;;3.47;;
7289;SDS011;63176;52.678;13.250;2023-01-30T00:22:57;8.68;;;3.80;;
7289;SDS011;63176;52.678;13.250;2023-01-30T00:25:23;5.93;;;3.47;;
7289;SDS011;63176;52.678;13.250;2023-01-30T00:27:49;7.63;;;4.78;;
7289;SDS011;63176;52.678;13.250;2023-01-30T00:30:15;5.90;;;3.60;;
7289;SDS011;63176;52.678;13.250;2023-01-30T00:32:41;7.63;;;4.33;;
7289;SDS011;63176;52.678;13.250;2023-01-30T00:35:07;8.37;;;4.10;;
7289;SDS011;63176;52.678;13.250;2023-01-30T00:37:32;6.00;;;4.27;;
7289;SDS011;63176;52.678;13.250;2023-01-30T00:39:58;6.20;;;3.87;;
7289;SDS011;63176;52.678;13.250;2023-01-30T00:42:23;6.47;;;4.43;;
7289;SDS011;63176;52.678;13.250;2023-01-30T00:45:09;9.02;;;4.32;;
7289;SDS011;63176;52.678;13.250;2023-01-30T00:47:54;8.38;;;4.20;;
7289;SDS011;63176;52.678;13.250;2023-01-30T00:50:20;9.30;;;5.10;;
7289;SDS011;63176;52.678;13.250;2023-01-30T00:52:45;6.00;;;3.97;;
7289;SDS011;63176;52.678;13.250;2023-01-30T00:55:11;8.40;;;4.03;;
7289;SDS011;63176;52.678;13.250;2023-01-30T00:57:37;10.33;;;5.27;;
7289;SDS011;63176;52.678;13.250;2023-01-30T01:00:02;5.10;;;3.27;;
7289;SDS011;63176;52.678;13.250;2023-01-30T01:02:30;8.00;;;4.43;;
7289;SDS011;63176;52.678;13.250;2023-01-30T01:04:55;6.78;;;4.50;;
7289;SDS011;63176;52.678;13.250;2023-01-30T01:07:21;8.93;;;5.20;;
7289;SDS011;63176;52.678;13.250;2023-01-30T01:09:47;9.73;;;4.73;;
7289;SDS011;63176;52.678;13.250;2023-01-30T01:12:12;8.50;;;4.70;;
7289;SDS011;63176;52.678;13.250;2023-01-30T01:14:38;9.83;;;5.73;;
7289;SDS011;63176;52.678;13.250;2023-01-30T01:17:03;8.50;;;5.43;;
7289;SDS011;63176;52.678;13.250;2023-01-30T01:19:29;12.47;;;5.53;;
7289;SDS011;63176;52.678;13.250;2023-01-30T01:21:55;7.93;;;4.23;;
7289;SDS011;63176;52.678;13.250;2023-01-30T01:24:20;7.73;;;5.17;;
7289;SDS011;63176;52.678;13.250;2023-01-30T01:26:46;11.13;;;5.07;;
7289;SDS011;63176;52.678;13.250;2023-01-30T01:29:12;9.80;;;5.00;;
7289;SDS011;63176;52.678;13.250;2023-01-30T01:31:39;9.05;;;4.50;;
7289;SDS011;63176;52.678;13.250;2023-01-30T01:34:06;9.70;;;5.35;;
7289;SDS011;63176;52.678;13.250;2023-01-30T01:36:31;12.87;;;5.30;;
7289;SDS011;63176;52.678;13.250;2023-01-30T01:38:57;8.80;;;5.30;;
7289;SDS011;63176;52.678;13.250;2023-01-30T01:41:23;10.33;;;4.90;;
7289;SDS011;63176;52.678;13.250;2023-01-30T01:43:59;7.63;;;4.83;;
7289;SDS011;63176;52.678;13.250;2023-01-30T01:49:14;8.65;;;5.00;;
7289;SDS011;63176;52.678;13.250;2023-01-30T01:52:18;6.60;;;5.35;;
7289;SDS011;63176;52.678;13.250;2023-01-30T01:54:49;10.30;;;5.03;;
7289;SDS011;63176;52.678;13.250;2023-01-30T01:57:23;8.15;;;4.68;;
7289;SDS011;63176;52.678;13.250;2023-01-30T02:00:03;9.60;;;6.05;;
7289;SDS011;63176;52.678;13.250;2023-01-30T02:02:35;9.70;;;5.28;;
7289;SDS011;63176;52.678;13.250;2023-01-30T02:05:02;13.13;;;6.07;;
7289;SDS011;63176;52.678;13.250;2023-01-30T02:07:38;9.23;;;5.35;;
7289;SDS011;63176;52.678;13.250;2023-01-30T02:10:43;8.95;;;5.22;;
7289;SDS011;63176;52.678;13.250;2023-01-30T02:13:10;9.45;;;5.10;;
7289;SDS011;63176;52.678;13.250;2023-01-30T02:15:35;7.73;;;4.63;;
7289;SDS011;63176;52.678;13.250;2023-01-30T02:18:01;11.57;;;5.87;;
7289;SDS011;63176;52.678;13.250;2023-01-30T02:31:39;11.27;;;6.07;;
7289;SDS011;63176;52.678;13.250;2023-01-30T02:48:10;10.60;;;5.50;;
7289;SDS011;63176;52.678;13.250;2023-01-30T02:50:45;15.70;;;6.55;;
7289;SDS011;63176;52.678;13.250;2023-01-30T02:53:20;11.65;;;5.95;;
7289;SDS011;63176;52.678;13.250;2023-01-30T02:55:46;11.23;;;5.88;;
7289;SDS011;63176;52.678;13.250;2023-01-30T02:58:12;11.90;;;5.53;;
7289;SDS011;63176;52.678;13.250;2023-01-30T03:08:31;12.27;;;6.47;;
7289;SDS011;63176;52.678;13.250;2023-01-30T03:11:08;12.45;;;6.35;;
7289;SDS011;63176;52.678;13.250;2023-01-30T03:13:41;15.93;;;7.53;;
7289;SDS011;63176;52.678;13.250;2023-01-30T03:18:39;11.60;;;6.57;;
7289;SDS011;63176;52.678;13.250;2023-01-30T03:21:06;13.15;;;7.05;;
7289;SDS011;63176;52.678;13.250;2023-01-30T03:23:32;10.25;;;5.88;;
7289;SDS011;63176;52.678;13.250;2023-01-30T03:25:58;14.83;;;7.33;;
7289;SDS011;63176;52.678;13.250;2023-01-30T03:28:27;8.40;;;5.43;;
7289;SDS011;63176;52.678;13.250;2023-01-30T03:30:53;11.35;;;6.05;;
7289;SDS011;63176;52.678;13.250;2023-01-30T03:33:19;11.60;;;6.40;;
7289;SDS011;63176;52.678;13.250;2023-01-30T03:35:44;10.27;;;5.60;;
7289;SDS011;63176;52.678;13.250;2023-01-30T03:38:10;13.13;;;5.93;;
7289;SDS011;63176;52.678;13.250;2023-01-30T03:40:35;13.37;;;6.63;;
7289;SDS011;63176;52.678;13.250;2023-01-30T03:43:01;10.70;;;5.47;;
7289;SDS011;63176;52.678;13.250;2023-01-30T03:45:27;10.33;;;6.43;;
7289;SDS011;63176;52.678;13.250;2023-01-30T03:47:52;13.73;;;7.70;;
7289;SDS011;63176;52.678;13.250;2023-01-30T03:50:18;12.87;;;4.90;;
7289;SDS011;63176;52.678;13.250;2023-01-30T03:52:44;8.53;;;5.23;;
7289;SDS011;63176;52.678;13.250;2023-01-30T03:55:09;10.93;;;5.70;;
7289;SDS011;63176;52.678;13.250;2023-01-30T03:57:35;10.00;;;5.27;;
7289;SDS011;63176;52.678;13.250;2023-01-30T04:00:01;8.70;;;5.53;;
7289;SDS011;63176;52.678;13.250;2023-01-30T04:02:28;10.65;;;6.03;;
7289;SDS011;63176;52.678;13.250;2023-01-30T04:04:54;12.33;;;6.63;;
7289;SDS011;63176;52.678;13.250;2023-01-30T04:07:19;12.07;;;7.40;;
7289;SDS011;63176;52.678;13.250;2023-01-30T04:09:45;9.20;;;5.40;;
7289;SDS011;63176;52.678;13.250;2023-01-30T04:12:11;17.63;;;6.40;;
7289;SDS011;63176;52.678;13.250;2023-01-30T04:14:37;10.23;;;5.38;;
7289;SDS011;63176;52.678;13.250;2023-01-30T04:17:02;10.70;;;5.83;;
7289;SDS011;63176;52.678;13.250;2023-01-30T04:19:28;12.07;;;5.27;;
7289;SDS011;63176;52.678;13.250;2023-01-30T04:21:53;13.17;;;5.60;;
7289;SDS011;63176;52.678;13.250;2023-01-30T04:24:19;9.17;;;5.37;;
7289;SDS011;63176;52.678;13.250;2023-01-30T04:26:45;8.40;;;5.33;;
7289;SDS011;63176;52.678;13.250;2023-01-30T04:29:10;8.13;;;5.00;;
7289;SDS011;63176;52.678;13.250;2023-01-30T04:31:36;13.40;;;5.83;;
7289;SDS011;63176;52.678;13.250;2023-01-30T04:34:01;13.83;;;6.30;;
7289;SDS011;63176;52.678;13.250;2023-01-30T04:36:27;11.93;;;5.63;;
7289;SDS011;63176;52.678;13.250;2023-01-30T04:38:56;13.55;;;7.00;;
7289;SDS011;63176;52.678;13.250;2023-01-30T04:41:22;9.07;;;4.65;;
7289;SDS011;63176;52.678;13.250;2023-01-30T04:43:47;11.33;;;6.00;;
7289;SDS011;63176;52.678;13.250;2023-01-30T04:46:13;10.47;;;6.20;;
7289;SDS011;63176;52.678;13.250;2023-01-30T04:48:39;12.77;;;5.57;;
7289;SDS011;63176;52.678;13.250;2023-01-30T04:51:04;9.97;;;5.57;;
7289;SDS011;63176;52.678;13.250;2023-01-30T04:53:30;13.13;;;5.80;;
7289;SDS011;63176;52.678;13.250;2023-01-30T04:55:55;11.53;;;6.30;;
7289;SDS011;63176;52.678;13.250;2023-01-30T04:58:21;12.27;;;6.47;;
7289;SDS011;63176;52.678;13.250;2023-01-30T05:00:47;10.90;;;4.97;;
7289;SDS011;63176;52.678;13.250;2023-01-30T05:03:13;10.18;;;6.15;;
7289;SDS011;63176;52.678;13.250;2023-01-30T05:05:39;8.00;;;4.75;;
7289;SDS011;63176;52.678;13.250;2023-01-30T05:08:05;9.57;;;5.10;;
7289;SDS011;63176;52.678;13.250;2023-01-30T05:10:31;10.57;;;6.20;;
7289;SDS011;63176;52.678;13.250;2023-01-30T05:13:00;11.60;;;6.00;;
7289;SDS011;63176;52.678;13.250;2023-01-30T05:15:29;13.60;;;6.80;;
7289;SDS011;63176;52.678;13.250;2023-01-30T05:17:55;12.77;;;5.80;;
7289;SDS011;63176;52.678;13.250;2023-01-30T05:20:21;10.30;;;5.73;;
7289;SDS011;63176;52.678;13.250;2023-01-30T05:22:47;13.25;;;6.53;;
7289;SDS011;63176;52.678;13.250;2023-01-30T05:25:13;13.07;;;5.20;;
7289;SDS011;63176;52.678;13.250;2023-01-30T05:27:38;7.70;;;5.00;;
7289;SDS011;63176;52.678;13.250;2023-01-30T05:30:04;13.63;;;6.00;;
7289;SDS011;63176;52.678;13.250;2023-01-30T05:32:30;8.10;;;5.97;;
7289;SDS011;63176;52.678;13.250;2023-01-30T05:34:56;10.07;;;6.33;;
7289;SDS011;63176;52.678;13.250;2023-01-30T05:37:21;14.80;;;6.83;;
7289;SDS011;63176;52.678;13.250;2023-01-30T05:39:48;14.25;;;6.00;;
7289;SDS011;63176;52.678;13.250;2023-01-30T05:42:14;11.30;;;5.93;;
7289;SDS011;63176;52.678;13.250;2023-01-30T05:44:40;10.55;;;5.40;;
7289;SDS011;63176;52.678;13.250;2023-01-30T05:47:05;11.90;;;7.33;;
7289;SDS011;63176;52.678;13.250;2023-01-30T05:49:31;10.83;;;5.30;;
7289;SDS011;63176;52.678;13.250;2023-01-30T05:51:56;16.43;;;7.17;;
7289;SDS011;63176;52.678;13.250;2023-01-30T05:54:22;16.03;;;7.80;;
7289;SDS011;63176;52.678;13.250;2023-01-30T05:56:48;8.33;;;4.80;;
7289;SDS011;63176;52.678;13.250;2023-01-30T05:59:14;12.02;;;6.18;;
7289;SDS011;63176;52.678;13.250;2023-01-30T06:01:40;10.60;;;6.03;;
7289;SDS011;63176;52.678;13.250;2023-01-30T06:04:06;17.60;;;6.37;;
7289;SDS011;63176;52.678;13.250;2023-01-30T06:06:31;12.43;;;6.30;;
7289;SDS011;63176;52.678;13.250;2023-01-30T06:08:57;13.03;;;6.00;;
7289;SDS011;63176;52.678;13.250;2023-01-30T06:11:23;13.10;;;6.40;;
7289;SDS011;63176;52.678;13.250;2023-01-30T06:13:48;12.50;;;6.53;;
7289;SDS011;63176;52.678;13.250;2023-01-30T06:16:15;11.73;;;6.00;;
7289;SDS011;63176;52.678;13.250;2023-01-30T06:18:41;11.07;;;5.85;;
7289;SDS011;63176;52.678;13.250;2023-01-30T06:21:08;9.30;;;5.40;;
7289;SDS011;63176;52.678;13.250;2023-01-30T06:23:34;10.18;;;5.25;;
7289;SDS011;63176;52.678;13.250;2023-01-30T06:25:59;13.43;;;6.40;;
7289;SDS011;63176;52.678;13.250;2023-01-30T06:28:25;10.20;;;5.60;;
7289;SDS011;63176;52.678;13.250;2023-01-30T06:30:51;10.20;;;4.60;;
7289;SDS011;63176;52.678;13.250;2023-01-30T06:33:18;13.50;;;7.10;;
7289;SDS011;63176;52.678;13.250;2023-01-30T06:35:46;10.52;;;5.00;;
7289;SDS011;63176;52.678;13.250;2023-01-30T06:38:14;10.32;;;5.32;;
7289;SDS011;63176;52.678;13.250;2023-01-30T06:40:40;10.23;;;4.78;;
7289;SDS011;63176;52.678;13.250;2023-01-30T06:43:08;7.85;;;4.75;;
7289;SDS011;63176;52.678;13.250;2023-01-30T06:45:33;6.57;;;4.33;;
7289;SDS011;63176;52.678;13.250;2023-01-30T06:47:59;7.10;;;4.80;;
7289;SDS011;63176;52.678;13.250;2023-01-30T06:50:25;6.83;;;3.50;;
7289;SDS011;63176;52.678;13.250;2023-01-30T06:52:52;5.05;;;3.58;;
7289;SDS011;63176;52.678;13.250;2023-01-30T06:55:20;7.93;;;4.63;;
7289;SDS011;63176;52.678;13.250;2023-01-30T06:57:47;5.57;;;3.38;;
7289;SDS011;63176;52.678;13.250;2023-01-30T07:00:15;7.63;;;3.90;;
7289;SDS011;63176;52.678;13.250;2023-01-30T07:02:42;5.45;;;4.03;;
7289;SDS011;63176;52.678;13.250;2023-01-30T07:05:09;6.53;;;4.07;;
7289;SDS011;63176;52.678;13.250;2023-01-30T07:07:35;6.45;;;3.78;;
7289;SDS011;63176;52.678;13.250;2023-01-30T07:10:02;4.32;;;3.50;;
7289;SDS011;63176;52.678;13.250;2023-01-30T07:12:29;6.07;;;3.38;;
7289;SDS011;63176;52.678;13.250;2023-01-30T07:14:55;7.07;;;3.60;;
7289;SDS011;63176;52.678;13.250;2023-01-30T07:17:21;5.20;;;3.83;;
7289;SDS011;63176;52.678;13.250;2023-01-30T07:19:47;4.00;;;2.87;;
7289;SDS011;63176;52.678;13.250;2023-01-30T07:22:13;4.78;;;2.80;;
7289;SDS011;63176;52.678;13.250;2023-01-30T07:24:39;4.40;;;3.47;;
7289;SDS011;63176;52.678;13.250;2023-01-30T07:27:07;7.75;;;3.97;;
7289;SDS011;63176;52.678;13.250;2023-01-30T07:29:34;6.28;;;3.38;;
7289;SDS011;63176;52.678;13.250;2023-01-30T07:32:00;3.38;;;2.70;;
7289;SDS011;63176;52.678;13.250;2023-01-30T07:34:26;3.78;;;2.97;;
7289;SDS011;63176;52.678;13.250;2023-01-30T07:36:52;5.70;;;2.80;;
7289;SDS011;63176;52.678;13.250;2023-01-30T07:39:18;3.80;;;2.50;;
7289;SDS011;63176;52.678;13.250;2023-01-30T07:41:43;6.00;;;3.10;;
7289;SDS011;63176;52.678;13.250;2023-01-30T07:44:09;4.27;;;2.87;;
7289;SDS011;63176;52.678;13.250;2023-01-30T07:46:35;3.13;;;2.70;;
7289;SDS011;63176;52.678;13.250;2023-01-30T07:49:01;3.67;;;2.60;;
7289;SDS011;63176;52.678;13.250;2023-01-30T07:51:27;2.42;;;2.22;;
7289;SDS011;63176;52.678;13.250;2023-01-30T07:53:53;4.77;;;2.77;;
7289;SDS011;63176;52.678;13.250;2023-01-30T07:56:19;4.80;;;2.60;;
7289;SDS011;63176;52.678;13.250;2023-01-30T07:58:47;2.88;;;2.42;;
7289;SDS011;63176;52.678;13.250;2023-01-30T08:01:13;5.82;;;2.80;;
7289;SDS011;63176;52.678;13.250;2023-01-30T08:03:39;4.03;;;2.80;;
7289;SDS011;63176;52.678;13.250;2023-01-30T08:06:05;3.87;;;2.17;;
7289;SDS011;63176;52.678;13.250;2023-01-30T08:08:31;2.80;;;2.40;;
7289;SDS011;63176;52.678;13.250;2023-01-30T08:10:57;2.10;;;1.90;;
7289;SDS011;63176;52.678;13.250;2023-01-30T08:13:23;2.40;;;2.20;;
7289;SDS011;63176;52.678;13.250;2023-01-30T08:15:48;2.43;;;2.13;;
7289;SDS011;63176;52.678;13.250;2023-01-30T08:18:15;3.40;;;2.58;;
7289;SDS011;63176;52.678;13.250;2023-01-30T08:20:40;3.60;;;2.33;;
7289;SDS011;63176;52.678;13.250;2023-01-30T08:23:07;3.97;;;1.92;;
7289;SDS011;63176;52.678;13.250;2023-01-30T08:25:33;4.03;;;2.35;;
7289;SDS011;63176;52.678;13.250;2023-01-30T08:27:59;4.35;;;2.50;;
7289;SDS011;63176;52.678;13.250;2023-01-30T08:30:26;4.20;;;2.25;;
7289;SDS011;63176;52.678;13.250;2023-01-30T08:32:52;4.03;;;2.30;;
7289;SDS011;63176;52.678;13.250;2023-01-30T08:35:17;3.07;;;2.20;;
7289;SDS011;63176;52.678;13.250;2023-01-30T08:37:43;3.70;;;2.73;;
7289;SDS011;63176;52.678;13.250;2023-01-30T08:40:09;3.93;;;2.40;;
7289;SDS011;63176;52.678;13.250;2023-01-30T08:42:36;3.45;;;2.08;;
7289;SDS011;63176;52.678;13.250;2023-01-30T08:45:01;3.10;;;2.40;;
7289;SDS011;63176;52.678;13.250;2023-01-30T08:47:27;2.50;;;2.20;;
7289;SDS011;63176;52.678;13.250;2023-01-30T08:49:53;3.40;;;2.40;;
7289;SDS011;63176;52.678;13.250;2023-01-30T08:52:19;4.60;;;2.43;;
7289;SDS011;63176;52.678;13.250;2023-01-30T08:54:45;3.20;;;1.95;;
7289;SDS011;63176;52.678;13.250;2023-01-30T08:57:12;5.70;;;3.03;;
7289;SDS011;63176;52.678;13.250;2023-01-30T08:59:38;2.90;;;2.00;;
7289;SDS011;63176;52.678;13.250;2023-01-30T09:02:04;3.40;;;2.30;;
7289;SDS011;63176;52.678;13.250;2023-01-30T09:04:31;1.98;;;1.75;;
7289;SDS011;63176;52.678;13.250;2023-01-30T09:06:56;5.43;;;2.03;;
7289;SDS011;63176;52.678;13.250;2023-01-30T09:09:22;7.30;;;2.33;;
7289;SDS011;63176;52.678;13.250;2023-01-30T09:11:48;2.90;;;1.57;;
7289;SDS011;63176;52.678;13.250;2023-01-30T09:14:14;2.57;;;1.30;;
7289;SDS011;63176;52.678;13.250;2023-01-30T09:16:43;3.40;;;1.98;;
7289;SDS011;63176;52.678;13.250;2023-01-30T09:19:13;2.45;;;1.60;;
7289;SDS011;63176;52.678;13.250;2023-01-30T09:21:39;2.03;;;0.90;;
7289;SDS011;63176;52.678;13.250;2023-01-30T09:24:05;3.43;;;1.10;;
7289;SDS011;63176;52.678;13.250;2023-01-30T09:26:31;1.92;;;1.40;;
7289;SDS011;63176;52.678;13.250;2023-01-30T09:28:56;1.37;;;0.90;;
7289;SDS011;63176;52.678;13.250;2023-01-30T09:31:22;1.33;;;0.87;;
7289;SDS011;63176;52.678;13.250;2023-01-30T09:33:47;2.70;;;1.20;;
7289;SDS011;63176;52.678;13.250;2023-01-30T09:36:13;1.40;;;1.10;;
7289;SDS011;63176;52.678;13.250;2023-01-30T09:38:39;1.30;;;0.80;;
7289;SDS011;63176;52.678;13.250;2023-01-30T09:46:59;0.70;;;0.50;;
7289;SDS011;63176;52.678;13.250;2023-01-30T09:52:22;1.42;;;0.85;;
7289;SDS011;63176;52.678;13.250;2023-01-30T09:55:10;3.45;;;1.00;;
7289;SDS011;63176;52.678;13.250;2023-01-30T09:57:42;4.25;;;0.82;;
7289;SDS011;63176;52.678;13.250;2023-01-30T10:02:52;3.83;;;0.82;;
7289;SDS011;63176;52.678;13.250;2023-01-30T10:05:41;2.25;;;0.88;;
7289;SDS011;63176;52.678;13.250;2023-01-30T10:11:22;6.93;;;1.08;;
7289;SDS011;63176;52.678;13.250;2023-01-30T10:25:52;4.30;;;0.88;;
7289;SDS011;63176;52.678;13.250;2023-01-30T10:28:24;1.80;;;0.68;;
7289;SDS011;63176;52.678;13.250;2023-01-30T10:31:03;7.57;;;1.10;;
7289;SDS011;63176;52.678;13.250;2023-01-30T10:33:42;2.35;;;0.70;;
7289;SDS011;63176;52.678;13.250;2023-01-30T10:36:14;3.17;;;0.70;;
7289;SDS011;63176;52.678;13.250;2023-01-30T10:38:45;9.15;;;1.10;;
7289;SDS011;63176;52.678;13.250;2023-01-30T10:43:53;3.65;;;1.20;;
7289;SDS011;63176;52.678;13.250;2023-01-30T10:46:28;6.30;;;1.67;;
7289;SDS011;63176;52.678;13.250;2023-01-30T11:01:06;3.15;;;0.93;;
7289;SDS011;63176;52.678;13.250;2023-01-30T11:06:00;9.13;;;1.23;;
7289;SDS011;63176;52.678;13.250;2023-01-30T11:08:35;7.63;;;1.73;;
7289;SDS011;63176;52.678;13.250;2023-01-30T11:11:19;4.80;;;1.47;;
7289;SDS011;63176;52.678;13.250;2023-01-30T11:13:48;6.63;;;2.05;;
7289;SDS011;63176;52.678;13.250;2023-01-30T11:16:14;6.83;;;1.07;;
7289;SDS011;63176;52.678;13.250;2023-01-30T11:18:44;3.03;;;0.90;;
7289;SDS011;63176;52.678;13.250;2023-01-30T11:21:23;8.73;;;1.35;;
7289;SDS011;63176;52.678;13.250;2023-01-30T11:23:53;9.07;;;1.63;;
7289;SDS011;63176;52.678;13.250;2023-01-30T11:26:29;2.80;;;1.20;;
7289;SDS011;63176;52.678;13.250;2023-01-30T11:28:58;4.93;;;0.88;;
7289;SDS011;63176;52.678;13.250;2023-01-30T11:31:24;4.77;;;1.03;;
7289;SDS011;63176;52.678;13.250;2023-01-30T11:34:02;4.57;;;0.95;;
7289;SDS011;63176;52.678;13.250;2023-01-30T11:36:31;6.72;;;0.88;;
7289;SDS011;63176;52.678;13.250;2023-01-30T11:41:25;3.05;;;0.90;;
7289;SDS011;63176;52.678;13.250;2023-01-30T11:43:58;1.73;;;0.60;;
7289;SDS011;63176;52.678;13.250;2023-01-30T11:46:25;4.47;;;1.35;;
7289;SDS011;63176;52.678;13.250;2023-01-30T11:49:03;4.53;;;1.40;;
7289;SDS011;63176;52.678;13.250;2023-01-30T11:51:34;1.60;;;0.85;;
7289;SDS011;63176;52.678;13.250;2023-01-30T11:54:03;1.75;;;0.98;;
7289;SDS011;63176;52.678;13.250;2023-01-30T11:56:40;6.25;;;1.08;;
7289;SDS011;63176;52.678;13.250;2023-01-30T12:01:59;4.78;;;0.50;;
7289;SDS011;63176;52.678;13.250;2023-01-30T12:04:27;2.80;;;0.60;;
7289;SDS011;63176;52.678;13.250;2023-01-30T12:07:03;4.00;;;0.63;;
7289;SDS011;63176;52.678;13.250;2023-01-30T12:09:34;2.00;;;0.70;;
7289;SDS011;63176;52.678;13.250;2023-01-30T12:12:00;1.27;;;0.70;;
7289;SDS011;63176;52.678;13.250;2023-01-30T12:14:31;2.80;;;0.80;;
7289;SDS011;63176;52.678;13.250;2023-01-30T12:17:15;18.40;;;1.05;;
7289;SDS011;63176;52.678;13.250;2023-01-30T12:19:56;4.35;;;1.20;;
7289;SDS011;63176;52.678;13.250;2023-01-30T12:25:22;5.68;;;1.08;;
7289;SDS011;63176;52.678;13.250;2023-01-30T12:28:01;8.52;;;1.13;;
7289;SDS011;63176;52.678;13.250;2023-01-30T12:30:41;7.15;;;0.85;;
7289;SDS011;63176;52.678;13.250;2023-01-30T12:33:12;4.28;;;1.05;;
7289;SDS011;63176;52.678;13.250;2023-01-30T12:38:13;8.33;;;1.40;;
7289;SDS011;63176;52.678;13.250;2023-01-30T12:40:58;8.95;;;1.45;;
7289;SDS011;63176;52.678;13.250;2023-01-30T12:46:13;3.83;;;1.00;;
7289;SDS011;63176;52.678;13.250;2023-01-30T12:56:44;4.40;;;0.93;;
7289;SDS011;63176;52.678;13.250;2023-01-30T13:02:13;5.47;;;1.42;;
7289;SDS011;63176;52.678;13.250;2023-01-30T13:04:48;6.03;;;1.20;;
7289;SDS011;63176;52.678;13.250;2023-01-30T13:07:49;2.45;;;1.33;;
7289;SDS011;63176;52.678;13.250;2023-01-30T13:10:29;6.22;;;1.50;;
7289;SDS011;63176;52.678;13.250;2023-01-30T13:18:31;2.70;;;1.00;;
7289;SDS011;63176;52.678;13.250;2023-01-30T13:24:01;3.38;;;1.05;;
7289;SDS011;63176;52.678;13.250;2023-01-30T13:26:35;3.15;;;0.98;;
7289;SDS011;63176;52.678;13.250;2023-01-30T13:29:04;7.20;;;1.20;;
7289;SDS011;63176;52.678;13.250;2023-01-30T13:31:37;2.88;;;1.15;;
7289;SDS011;63176;52.678;13.250;2023-01-30T13:34:24;2.25;;;1.05;;
7289;SDS011;63176;52.678;13.250;2023-01-30T13:37:04;1.45;;;0.85;;
7289;SDS011;63176;52.678;13.250;2023-01-30T13:42:55;3.63;;;1.05;;
7289;SDS011;63176;52.678;13.250;2023-01-30T13:45:33;5.60;;;1.00;;
7289;SDS011;63176;52.678;13.250;2023-01-30T14:07:06;2.03;;;0.90;;
7289;SDS011;63176;52.678;13.250;2023-01-30T14:09:47;2.50;;;0.50;;
7289;SDS011;63176;52.678;13.250;2023-01-30T14:12:16;1.85;;;0.50;;
7289;SDS011;63176;52.678;13.250;2023-01-30T14:14:56;3.05;;;1.15;;
7289;SDS011;63176;52.678;13.250;2023-01-30T14:17:26;2.55;;;1.00;;
7289;SDS011;63176;52.678;13.250;2023-01-30T14:19:54;1.17;;;0.60;;
7289;SDS011;63176;52.678;13.250;2023-01-30T14:22:24;3.33;;;0.40;;
7289;SDS011;63176;52.678;13.250;2023-01-30T14:25:28;3.80;;;0.68;;
7289;SDS011;63176;52.678;13.250;2023-01-30T14:27:51;0.88;;;0.50;;
7289;SDS011;63176;52.678;13.250;2023-01-30T14:30:33;0.70;;;0.47;;
7289;SDS011;63176;52.678;13.250;2023-01-30T14:33:00;0.50;;;0.40;;
7289;SDS011;63176;52.678;13.250;2023-01-30T14:40:30;0.60;;;0.43;;
7289;SDS011;63176;52.678;13.250;2023-01-30T14:45:50;2.15;;;0.60;;
7289;SDS011;63176;52.678;13.250;2023-01-30T14:51:17;0.50;;;0.40;;
7289;SDS011;63176;52.678;13.250;2023-01-30T14:54:06;3.40;;;0.47;;
7289;SDS011;63176;52.678;13.250;2023-01-30T15:01:58;0.93;;;0.50;;
7289;SDS011;63176;52.678;13.250;2023-01-30T15:07:09;4.97;;;0.63;;
7289;SDS011;63176;52.678;13.250;2023-01-30T15:09:40;3.60;;;0.77;;
7289;SDS011;63176;52.678;13.250;2023-01-30T15:17:39;0.85;;;0.50;;
7289;SDS011;63176;52.678;13.250;2023-01-30T15:25:25;4.88;;;0.80;;
7289;SDS011;63176;52.678;13.250;2023-01-30T15:31:10;0.40;;;0.40;;
7289;SDS011;63176;52.678;13.250;2023-01-30T15:33:47;0.40;;;0.40;;
7289;SDS011;63176;52.678;13.250;2023-01-30T15:39:00;0.60;;;0.60;;
7289;SDS011;63176;52.678;13.250;2023-01-30T15:41:32;1.73;;;0.45;;
7289;SDS011;63176;52.678;13.250;2023-01-30T15:44:17;5.45;;;0.50;;
7289;SDS011;63176;52.678;13.250;2023-01-30T15:50:06;1.63;;;0.50;;
7289;SDS011;63176;52.678;13.250;2023-01-30T15:52:35;1.73;;;0.70;;
7289;SDS011;63176;52.678;13.250;2023-01-30T15:55:31;3.90;;;0.85;;
7289;SDS011;63176;52.678;13.250;2023-01-30T15:58:01;0.63;;;0.40;;
7289;SDS011;63176;52.678;13.250;2023-01-30T16:00:48;3.22;;;0.75;;
7289;SDS011;63176;52.678;13.250;2023-01-30T16:03:17;0.50;;;0.50;;
7289;SDS011;63176;52.678;13.250;2023-01-30T16:05:50;3.85;;;0.43;;
7289;SDS011;63176;52.678;13.250;2023-01-30T16:08:23;3.60;;;1.05;;
7289;SDS011;63176;52.678;13.250;2023-01-30T16:10:55;2.83;;;0.57;;
7289;SDS011;63176;52.678;13.250;2023-01-30T16:13:22;4.07;;;1.05;;
7289;SDS011;63176;52.678;13.250;2023-01-30T16:16:04;4.18;;;0.60;;
7289;SDS011;63176;52.678;13.250;2023-01-30T16:21:16;2.58;;;0.63;;
7289;SDS011;63176;52.678;13.250;2023-01-30T16:26:24;3.00;;;0.70;;
7289;SDS011;63176;52.678;13.250;2023-01-30T16:28:50;3.97;;;0.77;;
7289;SDS011;63176;52.678;13.250;2023-01-30T16:31:31;2.42;;;0.70;;
7289;SDS011;63176;52.678;13.250;2023-01-30T16:33:58;3.35;;;0.88;;
7289;SDS011;63176;52.678;13.250;2023-01-30T16:38:51;3.27;;;1.20;;
7289;SDS011;63176;52.678;13.250;2023-01-30T16:41:27;2.72;;;1.02;;
7289;SDS011;63176;52.678;13.250;2023-01-30T16:44:36;2.88;;;1.10;;
7289;SDS011;63176;52.678;13.250;2023-01-30T16:46:55;7.18;;;1.30;;
7289;SDS011;63176;52.678;13.250;2023-01-30T16:52:00;4.78;;;1.17;;
7289;SDS011;63176;52.678;13.250;2023-01-30T16:54:27;1.42;;;0.52;;
7289;SDS011;63176;52.678;13.250;2023-01-30T16:56:54;1.35;;;0.63;;
7289;SDS011;63176;52.678;13.250;2023-01-30T16:59:29;2.90;;;0.80;;
7289;SDS011;63176;52.678;13.250;2023-01-30T17:01:56;3.20;;;0.50;;
7289;SDS011;63176;52.678;13.250;2023-01-30T17:04:23;1.85;;;0.70;;
7289;SDS011;63176;52.678;13.250;2023-01-30T17:06:58;5.43;;;1.00;;
7289;SDS011;63176;52.678;13.250;2023-01-30T17:14:50;0.95;;;0.77;;
7289;SDS011;63176;52.678;13.250;2023-01-30T17:17:33;2.58;;;0.90;;
7289;SDS011;63176;52.678;13.250;2023-01-30T17:19:58;2.77;;;1.07;;
7289;SDS011;63176;52.678;13.250;2023-01-30T17:22:24;5.93;;;1.27;;
7289;SDS011;63176;52.678;13.250;2023-01-30T17:24:51;1.02;;;0.80;;
7289;SDS011;63176;52.678;13.250;2023-01-30T17:27:22;2.97;;;1.08;;
7289;SDS011;63176;52.678;13.250;2023-01-30T17:29:50;4.68;;;0.77;;
7289;SDS011;63176;52.678;13.250;2023-01-30T17:32:16;4.83;;;1.00;;
7289;SDS011;63176;52.678;13.250;2023-01-30T17:34:41;2.87;;;0.80;;
7289;SDS011;63176;52.678;13.250;2023-01-30T17:37:17;8.00;;;1.70;;
7289;SDS011;63176;52.678;13.250;2023-01-30T17:39:45;6.97;;;1.65;;
7289;SDS011;63176;52.678;13.250;2023-01-30T17:42:11;4.07;;;1.50;;
7289;SDS011;63176;52.678;13.250;2023-01-30T17:44:38;2.10;;;1.48;;
7289;SDS011;63176;52.678;13.250;2023-01-30T17:47:05;5.60;;;1.55;;
7289;SDS011;63176;52.678;13.250;2023-01-30T17:49:31;7.17;;;2.03;;
7289;SDS011;63176;52.678;13.250;2023-01-30T17:51:57;1.95;;;1.10;;
7289;SDS011;63176;52.678;13.250;2023-01-30T17:54:24;4.10;;;2.45;;
7289;SDS011;63176;52.678;13.250;2023-01-30T17:56:55;2.78;;;1.13;;
7289;SDS011;63176;52.678;13.250;2023-01-30T17:59:24;10.80;;;1.48;;
7289;SDS011;63176;52.678;13.250;2023-01-30T18:01:50;11.65;;;1.58;;
7289;SDS011;63176;52.678;13.250;2023-01-30T18:04:17;1.77;;;1.10;;
7289;SDS011;63176;52.678;13.250;2023-01-30T18:06:51;4.80;;;1.48;;
7289;SDS011;63176;52.678;13.250;2023-01-30T18:09:20;8.98;;;1.55;;